Flint Hill, North Carolina
Current Conditions -  °F | °C
As of 5:15 PM on Monday 26 Jan 2015 (Local Time) from KVUJ Reporting Station
Light Rain Light Rain  
Wind Chill: 46°   Ceiling: 3900
Heat Index: 46°   Visibility: 10mi
Dew Point: 42°   Wind: 0mph
Humidity: 84%   Direction: NA
Pressure: 29.69"   Gusts: NA
Location:  35.4086°N, 79.9566°W
Report Text: KVUJ 262215Z AUTO 00000KT 10SM -RA SCT028 BKN039 OVC050 08/05 A2969 RMK AO2 LTG DSNT E T00790054
Loading
Personal Weather Stations






























Interactive Weather Map New forecast layout! Learn more

10-Day Weather Forecast

Advertisements
Track Severe Weather on mobile